sensor_id;sensor_type;location;lat;lon;timestamp;P1;durP1;ratioP1;P2;durP2;ratioP2
75417;SDS011;63997;52.112;5.420;2022-12-07T00:01:06;5.65;;;2.03;;
75417;SDS011;63997;52.112;5.420;2022-12-07T00:03:37;5.43;;;2.53;;
75417;SDS011;63997;52.112;5.420;2022-12-07T00:06:06;7.57;;;2.70;;
75417;SDS011;63997;52.112;5.420;2022-12-07T00:08:34;6.50;;;2.95;;
75417;SDS011;63997;52.112;5.420;2022-12-07T00:11:05;5.57;;;2.72;;
75417;SDS011;63997;52.112;5.420;2022-12-07T00:13:36;5.65;;;2.60;;
75417;SDS011;63997;52.112;5.420;2022-12-07T00:16:03;4.90;;;2.67;;
75417;SDS011;63997;52.112;5.420;2022-12-07T00:18:33;3.67;;;2.20;;
75417;SDS011;63997;52.112;5.420;2022-12-07T00:21:03;4.30;;;1.98;;
75417;SDS011;63997;52.112;5.420;2022-12-07T00:23:32;4.13;;;2.13;;
75417;SDS011;63997;52.112;5.420;2022-12-07T00:26:03;8.20;;;2.33;;
75417;SDS011;63997;52.112;5.420;2022-12-07T00:28:30;4.70;;;2.40;;
75417;SDS011;63997;52.112;5.420;2022-12-07T00:31:01;4.00;;;2.40;;
75417;SDS011;63997;52.112;5.420;2022-12-07T00:33:32;3.85;;;1.92;;
75417;SDS011;63997;52.112;5.420;2022-12-07T00:36:00;4.35;;;2.15;;
75417;SDS011;63997;52.112;5.420;2022-12-07T00:38:29;10.05;;;2.17;;
75417;SDS011;63997;52.112;5.420;2022-12-07T00:41:00;5.50;;;2.10;;
75417;SDS011;63997;52.112;5.420;2022-12-07T00:43:29;4.70;;;2.27;;
75417;SDS011;63997;52.112;5.420;2022-12-07T00:45:55;5.47;;;1.85;;
75417;SDS011;63997;52.112;5.420;2022-12-07T00:48:23;5.05;;;2.28;;
75417;SDS011;63997;52.112;5.420;2022-12-07T00:50:49;3.28;;;1.95;;
75417;SDS011;63997;52.112;5.420;2022-12-07T00:53:16;3.17;;;2.40;;
75417;SDS011;63997;52.112;5.420;2022-12-07T00:55:43;5.20;;;2.33;;
75417;SDS011;63997;52.112;5.420;2022-12-07T00:58:10;3.42;;;1.83;;
75417;SDS011;63997;52.112;5.420;2022-12-07T01:00:38;3.05;;;2.10;;
75417;SDS011;63997;52.112;5.420;2022-12-07T01:03:06;7.00;;;2.17;;
75417;SDS011;63997;52.112;5.420;2022-12-07T01:05:34;3.58;;;1.75;;
75417;SDS011;63997;52.112;5.420;2022-12-07T01:08:01;4.83;;;1.60;;
75417;SDS011;63997;52.112;5.420;2022-12-07T01:10:28;4.55;;;1.70;;
75417;SDS011;63997;52.112;5.420;2022-12-07T01:12:56;5.15;;;1.73;;
75417;SDS011;63997;52.112;5.420;2022-12-07T01:15:22;5.20;;;1.73;;
75417;SDS011;63997;52.112;5.420;2022-12-07T01:17:49;4.22;;;2.35;;
75417;SDS011;63997;52.112;5.420;2022-12-07T01:20:15;4.00;;;2.00;;
75417;SDS011;63997;52.112;5.420;2022-12-07T01:22:42;5.00;;;1.63;;
75417;SDS011;63997;52.112;5.420;2022-12-07T01:25:10;3.22;;;1.48;;
75417;SDS011;63997;52.112;5.420;2022-12-07T01:27:37;3.05;;;1.48;;
75417;SDS011;63997;52.112;5.420;2022-12-07T01:30:04;3.42;;;2.38;;
75417;SDS011;63997;52.112;5.420;2022-12-07T01:32:32;3.83;;;1.20;;
75417;SDS011;63997;52.112;5.420;2022-12-07T01:34:59;3.90;;;1.45;;
75417;SDS011;63997;52.112;5.420;2022-12-07T01:37:25;3.95;;;1.23;;
75417;SDS011;63997;52.112;5.420;2022-12-07T01:39:52;5.88;;;1.30;;
75417;SDS011;63997;52.112;5.420;2022-12-07T01:42:18;1.83;;;1.25;;
75417;SDS011;63997;52.112;5.420;2022-12-07T01:47:50;3.33;;;1.23;;
75417;SDS011;63997;52.112;5.420;2022-12-07T01:50:21;2.75;;;1.17;;
75417;SDS011;63997;52.112;5.420;2022-12-07T01:52:52;2.75;;;1.35;;
75417;SDS011;63997;52.112;5.420;2022-12-07T01:55:22;2.75;;;1.50;;
75417;SDS011;63997;52.112;5.420;2022-12-07T01:57:50;4.10;;;1.40;;
75417;SDS011;63997;52.112;5.420;2022-12-07T02:00:19;5.28;;;1.40;;
75417;SDS011;63997;52.112;5.420;2022-12-07T02:02:57;3.10;;;1.10;;
75417;SDS011;63997;52.112;5.420;2022-12-07T02:05:30;2.58;;;0.90;;
75417;SDS011;63997;52.112;5.420;2022-12-07T02:07:57;2.22;;;1.17;;
75417;SDS011;63997;52.112;5.420;2022-12-07T02:10:25;3.83;;;1.10;;
75417;SDS011;63997;52.112;5.420;2022-12-07T02:12:55;3.45;;;0.90;;
75417;SDS011;63997;52.112;5.420;2022-12-07T02:15:28;6.22;;;1.40;;
75417;SDS011;63997;52.112;5.420;2022-12-07T02:18:07;4.75;;;1.02;;
75417;SDS011;63997;52.112;5.420;2022-12-07T02:23:40;2.57;;;1.10;;
75417;SDS011;63997;52.112;5.420;2022-12-07T02:31:56;4.35;;;1.10;;
75417;SDS011;63997;52.112;5.420;2022-12-07T02:40:37;4.00;;;1.33;;
75417;SDS011;63997;52.112;5.420;2022-12-07T02:43:12;4.00;;;1.25;;
75417;SDS011;63997;52.112;5.420;2022-12-07T02:45:44;2.22;;;0.85;;
75417;SDS011;63997;52.112;5.420;2022-12-07T02:48:13;4.07;;;1.38;;
75417;SDS011;63997;52.112;5.420;2022-12-07T02:50:50;2.13;;;0.70;;
75417;SDS011;63997;52.112;5.420;2022-12-07T02:53:39;3.00;;;0.88;;
75417;SDS011;63997;52.112;5.420;2022-12-07T02:56:20;5.35;;;1.25;;
75417;SDS011;63997;52.112;5.420;2022-12-07T03:04:50;3.47;;;0.80;;
75417;SDS011;63997;52.112;5.420;2022-12-07T03:07:26;5.57;;;1.17;;
75417;SDS011;63997;52.112;5.420;2022-12-07T03:13:08;4.38;;;0.80;;
75417;SDS011;63997;52.112;5.420;2022-12-07T03:15:55;7.82;;;0.98;;
75417;SDS011;63997;52.112;5.420;2022-12-07T03:18:29;1.77;;;0.70;;
75417;SDS011;63997;52.112;5.420;2022-12-07T03:20:59;3.28;;;1.20;;
75417;SDS011;63997;52.112;5.420;2022-12-07T03:23:31;5.75;;;1.00;;
75417;SDS011;63997;52.112;5.420;2022-12-07T03:26:01;3.95;;;0.82;;
75417;SDS011;63997;52.112;5.420;2022-12-07T03:28:32;2.92;;;0.68;;
75417;SDS011;63997;52.112;5.420;2022-12-07T03:31:07;2.30;;;0.77;;
75417;SDS011;63997;52.112;5.420;2022-12-07T03:33:48;4.07;;;0.93;;
75417;SDS011;63997;52.112;5.420;2022-12-07T03:36:23;5.20;;;0.80;;
75417;SDS011;63997;52.112;5.420;2022-12-07T03:41:43;8.02;;;1.10;;
75417;SDS011;63997;52.112;5.420;2022-12-07T03:44:10;2.67;;;0.70;;
75417;SDS011;63997;52.112;5.420;2022-12-07T03:46:54;3.25;;;0.77;;
75417;SDS011;63997;52.112;5.420;2022-12-07T03:49:25;3.67;;;0.60;;
75417;SDS011;63997;52.112;5.420;2022-12-07T03:52:07;2.95;;;0.70;;
75417;SDS011;63997;52.112;5.420;2022-12-07T03:54:40;2.15;;;0.70;;
75417;SDS011;63997;52.112;5.420;2022-12-07T03:57:12;1.63;;;0.70;;
75417;SDS011;63997;52.112;5.420;2022-12-07T03:59:39;4.20;;;0.63;;
75417;SDS011;63997;52.112;5.420;2022-12-07T04:02:11;3.10;;;0.80;;
75417;SDS011;63997;52.112;5.420;2022-12-07T04:04:40;5.78;;;0.93;;
75417;SDS011;63997;52.112;5.420;2022-12-07T04:07:09;4.85;;;1.00;;
75417;SDS011;63997;52.112;5.420;2022-12-07T04:09:35;5.93;;;1.10;;
75417;SDS011;63997;52.112;5.420;2022-12-07T04:12:02;1.95;;;0.70;;
75417;SDS011;63997;52.112;5.420;2022-12-07T04:14:28;3.50;;;0.60;;
75417;SDS011;63997;52.112;5.420;2022-12-07T04:16:55;2.08;;;0.52;;
75417;SDS011;63997;52.112;5.420;2022-12-07T04:19:24;3.63;;;0.95;;
75417;SDS011;63997;52.112;5.420;2022-12-07T04:21:52;1.33;;;0.83;;
75417;SDS011;63997;52.112;5.420;2022-12-07T04:24:19;3.17;;;0.80;;
75417;SDS011;63997;52.112;5.420;2022-12-07T04:26:45;4.93;;;1.00;;
75417;SDS011;63997;52.112;5.420;2022-12-07T04:29:13;3.25;;;0.93;;
75417;SDS011;63997;52.112;5.420;2022-12-07T04:31:40;3.33;;;0.75;;
75417;SDS011;63997;52.112;5.420;2022-12-07T04:34:08;4.70;;;0.83;;
75417;SDS011;63997;52.112;5.420;2022-12-07T04:36:35;4.03;;;0.63;;
75417;SDS011;63997;52.112;5.420;2022-12-07T04:39:02;3.97;;;0.85;;
75417;SDS011;63997;52.112;5.420;2022-12-07T04:41:30;2.53;;;0.90;;
75417;SDS011;63997;52.112;5.420;2022-12-07T04:43:58;2.30;;;0.68;;
75417;SDS011;63997;52.112;5.420;2022-12-07T04:46:29;2.93;;;0.73;;
75417;SDS011;63997;52.112;5.420;2022-12-07T04:48:57;4.65;;;0.57;;
75417;SDS011;63997;52.112;5.420;2022-12-07T04:51:25;4.30;;;0.50;;
75417;SDS011;63997;52.112;5.420;2022-12-07T04:53:54;4.50;;;0.70;;
75417;SDS011;63997;52.112;5.420;2022-12-07T04:56:21;4.63;;;0.70;;
75417;SDS011;63997;52.112;5.420;2022-12-07T04:58:49;2.10;;;0.50;;
75417;SDS011;63997;52.112;5.420;2022-12-07T05:01:17;0.93;;;0.68;;
75417;SDS011;63997;52.112;5.420;2022-12-07T05:03:45;2.67;;;0.40;;
75417;SDS011;63997;52.112;5.420;2022-12-07T05:06:11;4.13;;;0.98;;
75417;SDS011;63997;52.112;5.420;2022-12-07T05:08:39;1.50;;;0.40;;
75417;SDS011;63997;52.112;5.420;2022-12-07T05:11:07;2.43;;;0.40;;
75417;SDS011;63997;52.112;5.420;2022-12-07T05:13:35;2.60;;;0.30;;
75417;SDS011;63997;52.112;5.420;2022-12-07T05:16:02;5.78;;;0.55;;
75417;SDS011;63997;52.112;5.420;2022-12-07T05:18:29;2.30;;;0.28;;
75417;SDS011;63997;52.112;5.420;2022-12-07T05:20:55;3.95;;;0.60;;
75417;SDS011;63997;52.112;5.420;2022-12-07T05:23:22;0.93;;;0.20;;
75417;SDS011;63997;52.112;5.420;2022-12-07T05:25:49;1.58;;;0.30;;
75417;SDS011;63997;52.112;5.420;2022-12-07T05:28:15;2.60;;;0.30;;
75417;SDS011;63997;52.112;5.420;2022-12-07T05:30:42;1.67;;;0.25;;
75417;SDS011;63997;52.112;5.420;2022-12-07T05:33:08;1.85;;;0.40;;
75417;SDS011;63997;52.112;5.420;2022-12-07T05:35:34;2.57;;;0.40;;
75417;SDS011;63997;52.112;5.420;2022-12-07T05:38:01;1.70;;;0.20;;
75417;SDS011;63997;52.112;5.420;2022-12-07T05:40:27;1.30;;;0.30;;
75417;SDS011;63997;52.112;5.420;2022-12-07T05:42:54;5.75;;;0.70;;
75417;SDS011;63997;52.112;5.420;2022-12-07T05:45:25;1.42;;;0.30;;
75417;SDS011;63997;52.112;5.420;2022-12-07T05:47:51;2.37;;;1.13;;
75417;SDS011;63997;52.112;5.420;2022-12-07T05:50:18;1.80;;;0.38;;
75417;SDS011;63997;52.112;5.420;2022-12-07T05:52:44;2.92;;;0.30;;
75417;SDS011;63997;52.112;5.420;2022-12-07T05:55:10;1.65;;;0.20;;
75417;SDS011;63997;52.112;5.420;2022-12-07T05:57:37;2.25;;;0.35;;
75417;SDS011;63997;52.112;5.420;2022-12-07T06:00:03;2.73;;;0.30;;
75417;SDS011;63997;52.112;5.420;2022-12-07T06:02:31;5.70;;;0.20;;
75417;SDS011;63997;52.112;5.420;2022-12-07T06:04:58;2.40;;;0.40;;
75417;SDS011;63997;52.112;5.420;2022-12-07T06:07:24;2.50;;;0.32;;
75417;SDS011;63997;52.112;5.420;2022-12-07T06:09:51;2.63;;;0.28;;
75417;SDS011;63997;52.112;5.420;2022-12-07T06:12:17;2.53;;;0.47;;
75417;SDS011;63997;52.112;5.420;2022-12-07T06:15:04;1.77;;;0.65;;
75417;SDS011;63997;52.112;5.420;2022-12-07T06:17:31;3.47;;;0.30;;
75417;SDS011;63997;52.112;5.420;2022-12-07T06:19:57;2.42;;;0.40;;
75417;SDS011;63997;52.112;5.420;2022-12-07T06:22:24;1.77;;;0.40;;
75417;SDS011;63997;52.112;5.420;2022-12-07T06:24:50;3.50;;;0.40;;
75417;SDS011;63997;52.112;5.420;2022-12-07T06:27:17;3.45;;;0.40;;
75417;SDS011;63997;52.112;5.420;2022-12-07T06:29:43;3.20;;;0.28;;
75417;SDS011;63997;52.112;5.420;2022-12-07T06:32:10;1.75;;;0.30;;
75417;SDS011;63997;52.112;5.420;2022-12-07T06:34:37;1.90;;;0.50;;
75417;SDS011;63997;52.112;5.420;2022-12-07T06:37:03;1.77;;;0.60;;
75417;SDS011;63997;52.112;5.420;2022-12-07T06:39:30;3.53;;;0.50;;
75417;SDS011;63997;52.112;5.420;2022-12-07T06:41:56;1.95;;;0.40;;
75417;SDS011;63997;52.112;5.420;2022-12-07T06:44:23;1.75;;;0.50;;
75417;SDS011;63997;52.112;5.420;2022-12-07T06:46:51;6.90;;;0.57;;
75417;SDS011;63997;52.112;5.420;2022-12-07T06:49:38;4.27;;;0.60;;
75417;SDS011;63997;52.112;5.420;2022-12-07T06:52:04;1.58;;;0.60;;
75417;SDS011;63997;52.112;5.420;2022-12-07T06:54:31;2.47;;;0.80;;
75417;SDS011;63997;52.112;5.420;2022-12-07T06:56:57;4.38;;;0.65;;
75417;SDS011;63997;52.112;5.420;2022-12-07T06:59:27;4.03;;;0.52;;
75417;SDS011;63997;52.112;5.420;2022-12-07T07:01:53;2.87;;;0.47;;
75417;SDS011;63997;52.112;5.420;2022-12-07T07:04:19;6.75;;;0.85;;
75417;SDS011;63997;52.112;5.420;2022-12-07T07:06:46;3.95;;;0.60;;
75417;SDS011;63997;52.112;5.420;2022-12-07T07:09:13;0.80;;;0.38;;
75417;SDS011;63997;52.112;5.420;2022-12-07T07:11:39;2.40;;;0.60;;
75417;SDS011;63997;52.112;5.420;2022-12-07T07:14:05;2.23;;;0.67;;
75417;SDS011;63997;52.112;5.420;2022-12-07T07:16:32;3.13;;;0.63;;
75417;SDS011;63997;52.112;5.420;2022-12-07T07:18:58;3.30;;;0.50;;
75417;SDS011;63997;52.112;5.420;2022-12-07T07:21:25;1.38;;;0.50;;
75417;SDS011;63997;52.112;5.420;2022-12-07T07:23:52;1.27;;;0.50;;
75417;SDS011;63997;52.112;5.420;2022-12-07T07:26:18;4.63;;;0.70;;
75417;SDS011;63997;52.112;5.420;2022-12-07T07:28:49;2.45;;;0.60;;
75417;SDS011;63997;52.112;5.420;2022-12-07T07:31:17;5.10;;;0.60;;
75417;SDS011;63997;52.112;5.420;2022-12-07T07:33:45;2.85;;;0.55;;
75417;SDS011;63997;52.112;5.420;2022-12-07T07:36:12;3.33;;;0.90;;
75417;SDS011;63997;52.112;5.420;2022-12-07T07:38:39;6.73;;;0.90;;
75417;SDS011;63997;52.112;5.420;2022-12-07T07:41:05;4.13;;;0.93;;
75417;SDS011;63997;52.112;5.420;2022-12-07T07:43:32;5.18;;;0.85;;
75417;SDS011;63997;52.112;5.420;2022-12-07T07:46:00;5.95;;;0.63;;
75417;SDS011;63997;52.112;5.420;2022-12-07T07:48:26;2.88;;;0.80;;
75417;SDS011;63997;52.112;5.420;2022-12-07T07:50:53;9.00;;;1.10;;
75417;SDS011;63997;52.112;5.420;2022-12-07T07:53:19;2.65;;;0.88;;
75417;SDS011;63997;52.112;5.420;2022-12-07T07:55:52;0.95;;;0.68;;
75417;SDS011;63997;52.112;5.420;2022-12-07T07:58:20;1.65;;;0.50;;
75417;SDS011;63997;52.112;5.420;2022-12-07T08:00:50;1.73;;;0.70;;
75417;SDS011;63997;52.112;5.420;2022-12-07T08:03:17;4.83;;;1.03;;
75417;SDS011;63997;52.112;5.420;2022-12-07T08:05:43;6.93;;;1.13;;
75417;SDS011;63997;52.112;5.420;2022-12-07T08:08:09;4.15;;;1.17;;
75417;SDS011;63997;52.112;5.420;2022-12-07T08:10:36;3.80;;;0.95;;
75417;SDS011;63997;52.112;5.420;2022-12-07T08:13:03;6.07;;;1.65;;
75417;SDS011;63997;52.112;5.420;2022-12-07T08:15:39;4.17;;;0.90;;
75417;SDS011;63997;52.112;5.420;2022-12-07T08:18:07;5.97;;;1.10;;
75417;SDS011;63997;52.112;5.420;2022-12-07T08:20:35;7.93;;;0.93;;
75417;SDS011;63997;52.112;5.420;2022-12-07T08:23:02;4.90;;;1.10;;
75417;SDS011;63997;52.112;5.420;2022-12-07T08:25:29;3.33;;;0.75;;
75417;SDS011;63997;52.112;5.420;2022-12-07T08:27:56;2.40;;;0.50;;
75417;SDS011;63997;52.112;5.420;2022-12-07T08:30:22;4.43;;;0.70;;
75417;SDS011;63997;52.112;5.420;2022-12-07T08:32:49;3.38;;;0.40;;
75417;SDS011;63997;52.112;5.420;2022-12-07T08:35:16;4.63;;;0.55;;
75417;SDS011;63997;52.112;5.420;2022-12-07T08:37:42;3.33;;;1.38;;
75417;SDS011;63997;52.112;5.420;2022-12-07T08:40:09;3.20;;;0.60;;
75417;SDS011;63997;52.112;5.420;2022-12-07T08:42:41;2.78;;;0.50;;
75417;SDS011;63997;52.112;5.420;2022-12-07T08:45:11;2.50;;;0.70;;
75417;SDS011;63997;52.112;5.420;2022-12-07T08:48:02;7.75;;;1.30;;
75417;SDS011;63997;52.112;5.420;2022-12-07T08:50:33;4.22;;;0.68;;
75417;SDS011;63997;52.112;5.420;2022-12-07T08:53:03;2.50;;;0.40;;
75417;SDS011;63997;52.112;5.420;2022-12-07T08:55:31;4.70;;;0.95;;
75417;SDS011;63997;52.112;5.420;2022-12-07T08:57:59;6.10;;;0.70;;
75417;SDS011;63997;52.112;5.420;2022-12-07T09:00:26;6.03;;;0.90;;
75417;SDS011;63997;52.112;5.420;2022-12-07T09:02:53;2.45;;;0.63;;
75417;SDS011;63997;52.112;5.420;2022-12-07T09:05:20;1.60;;;0.67;;
75417;SDS011;63997;52.112;5.420;2022-12-07T09:07:48;5.53;;;0.40;;
75417;SDS011;63997;52.112;5.420;2022-12-07T09:10:17;3.05;;;0.50;;
75417;SDS011;63997;52.112;5.420;2022-12-07T09:12:44;6.15;;;0.47;;
75417;SDS011;63997;52.112;5.420;2022-12-07T09:15:10;2.78;;;0.50;;
75417;SDS011;63997;52.112;5.420;2022-12-07T09:17:36;4.27;;;0.80;;
75417;SDS011;63997;52.112;5.420;2022-12-07T09:20:04;4.53;;;0.60;;
75417;SDS011;63997;52.112;5.420;2022-12-07T09:22:32;5.95;;;0.80;;
75417;SDS011;63997;52.112;5.420;2022-12-07T09:24:58;5.57;;;0.77;;
75417;SDS011;63997;52.112;5.420;2022-12-07T09:27:25;3.33;;;0.68;;
75417;SDS011;63997;52.112;5.420;2022-12-07T09:29:53;5.00;;;0.77;;
75417;SDS011;63997;52.112;5.420;2022-12-07T09:32:19;4.15;;;1.13;;
75417;SDS011;63997;52.112;5.420;2022-12-07T09:34:46;3.95;;;0.90;;
75417;SDS011;63997;52.112;5.420;2022-12-07T09:37:13;2.70;;;0.93;;
75417;SDS011;63997;52.112;5.420;2022-12-07T09:39:39;6.57;;;0.60;;
75417;SDS011;63997;52.112;5.420;2022-12-07T09:42:19;6.30;;;0.63;;
75417;SDS011;63997;52.112;5.420;2022-12-07T09:44:53;6.03;;;0.80;;
75417;SDS011;63997;52.112;5.420;2022-12-07T09:47:20;3.05;;;1.00;;
75417;SDS011;63997;52.112;5.420;2022-12-07T09:49:46;7.57;;;0.90;;
75417;SDS011;63997;52.112;5.420;2022-12-07T09:52:20;2.60;;;0.63;;
75417;SDS011;63997;52.112;5.420;2022-12-07T09:55:02;2.90;;;0.57;;
75417;SDS011;63997;52.112;5.420;2022-12-07T09:57:30;3.60;;;0.60;;
75417;SDS011;63997;52.112;5.420;2022-12-07T09:59:59;3.42;;;0.95;;
75417;SDS011;63997;52.112;5.420;2022-12-07T10:02:37;3.95;;;0.73;;
75417;SDS011;63997;52.112;5.420;2022-12-07T10:05:13;3.75;;;0.70;;
75417;SDS011;63997;52.112;5.420;2022-12-07T10:07:49;7.00;;;1.00;;
75417;SDS011;63997;52.112;5.420;2022-12-07T10:10:17;2.47;;;0.40;;
75417;SDS011;63997;52.112;5.420;2022-12-07T10:15:41;4.90;;;0.45;;
75417;SDS011;63997;52.112;5.420;2022-12-07T10:18:19;1.70;;;0.47;;
75417;SDS011;63997;52.112;5.420;2022-12-07T10:20:59;4.70;;;0.60;;
75417;SDS011;63997;52.112;5.420;2022-12-07T10:23:33;1.67;;;0.47;;
75417;SDS011;63997;52.112;5.420;2022-12-07T10:28:53;2.45;;;0.63;;
75417;SDS011;63997;52.112;5.420;2022-12-07T10:31:21;4.72;;;0.73;;
75417;SDS011;63997;52.112;5.420;2022-12-07T10:33:50;2.17;;;0.50;;
75417;SDS011;63997;52.112;5.420;2022-12-07T10:36:29;3.60;;;0.73;;
75417;SDS011;63997;52.112;5.420;2022-12-07T10:44:26;4.30;;;0.57;;
75417;SDS011;63997;52.112;5.420;2022-12-07T10:47:14;2.90;;;0.73;;
75417;SDS011;63997;52.112;5.420;2022-12-07T11:01:29;2.23;;;1.00;;
75417;SDS011;63997;52.112;5.420;2022-12-07T11:04:10;4.80;;;0.68;;
75417;SDS011;63997;52.112;5.420;2022-12-07T11:06:54;3.85;;;0.50;;
75417;SDS011;63997;52.112;5.420;2022-12-07T11:13:11;5.47;;;0.60;;
75417;SDS011;63997;52.112;5.420;2022-12-07T11:15:48;4.03;;;0.83;;
75417;SDS011;63997;52.112;5.420;2022-12-07T11:18:43;4.65;;;0.40;;
75417;SDS011;63997;52.112;5.420;2022-12-07T11:32:17;8.15;;;0.90;;
75417;SDS011;63997;52.112;5.420;2022-12-07T11:35:07;3.70;;;0.45;;
75417;SDS011;63997;52.112;5.420;2022-12-07T11:37:35;4.05;;;0.30;;
75417;SDS011;63997;52.112;5.420;2022-12-07T11:45:26;3.15;;;0.70;;
75417;SDS011;63997;52.112;5.420;2022-12-07T11:48:08;5.10;;;0.52;;
75417;SDS011;63997;52.112;5.420;2022-12-07T11:50:57;2.13;;;0.40;;
75417;SDS011;63997;52.112;5.420;2022-12-07T11:56:10;5.20;;;0.40;;
75417;SDS011;63997;52.112;5.420;2022-12-07T12:04:02;3.00;;;0.60;;
75417;SDS011;63997;52.112;5.420;2022-12-07T12:06:41;5.03;;;0.80;;
75417;SDS011;63997;52.112;5.420;2022-12-07T12:09:16;3.57;;;0.40;;
75417;SDS011;63997;52.112;5.420;2022-12-07T12:12:11;7.47;;;0.65;;
75417;SDS011;63997;52.112;5.420;2022-12-07T12:15:20;2.90;;;0.70;;
75417;SDS011;63997;52.112;5.420;2022-12-07T12:20:33;6.45;;;0.60;;
75417;SDS011;63997;52.112;5.420;2022-12-07T12:23:10;6.70;;;0.83;;
75417;SDS011;63997;52.112;5.420;2022-12-07T12:25:54;2.05;;;0.40;;
75417;SDS011;63997;52.112;5.420;2022-12-07T12:33:51;4.00;;;0.40;;
75417;SDS011;63997;52.112;5.420;2022-12-07T12:46:48;1.58;;;0.25;;
75417;SDS011;63997;52.112;5.420;2022-12-07T12:51:55;1.65;;;0.30;;
75417;SDS011;63997;52.112;5.420;2022-12-07T12:54:24;1.73;;;0.40;;
75417;SDS011;63997;52.112;5.420;2022-12-07T12:57:09;4.03;;;0.60;;
75417;SDS011;63997;52.112;5.420;2022-12-07T13:08:01;2.30;;;0.40;;
75417;SDS011;63997;52.112;5.420;2022-12-07T13:10:33;1.90;;;0.20;;
75417;SDS011;63997;52.112;5.420;2022-12-07T13:23:24;1.13;;;0.20;;
75417;SDS011;63997;52.112;5.420;2022-12-07T13:31:37;2.67;;;0.32;;
75417;SDS011;63997;52.112;5.420;2022-12-07T13:36:52;1.10;;;0.20;;
75417;SDS011;63997;52.112;5.420;2022-12-07T13:39:23;0.45;;;0.20;;
75417;SDS011;63997;52.112;5.420;2022-12-07T13:41:52;0.87;;;0.30;;
75417;SDS011;63997;52.112;5.420;2022-12-07T13:44:21;0.30;;;0.20;;
75417;SDS011;63997;52.112;5.420;2022-12-07T13:46:52;0.77;;;0.30;;
75417;SDS011;63997;52.112;5.420;2022-12-07T13:49:30;1.02;;;0.30;;
75417;SDS011;63997;52.112;5.420;2022-12-07T13:52:15;1.95;;;0.65;;
75417;SDS011;63997;52.112;5.420;2022-12-07T13:54:56;5.40;;;0.60;;
75417;SDS011;63997;52.112;5.420;2022-12-07T13:57:33;1.95;;;0.40;;
75417;SDS011;63997;52.112;5.420;2022-12-07T14:00:03;3.47;;;0.52;;
75417;SDS011;63997;52.112;5.420;2022-12-07T14:02:32;1.85;;;0.30;;
75417;SDS011;63997;52.112;5.420;2022-12-07T14:05:36;6.60;;;0.50;;
75417;SDS011;63997;52.112;5.420;2022-12-07T14:08:03;1.53;;;0.40;;
75417;SDS011;63997;52.112;5.420;2022-12-07T14:16:18;4.88;;;0.50;;
75417;SDS011;63997;52.112;5.420;2022-12-07T14:18:50;3.63;;;0.50;;
75417;SDS011;63997;52.112;5.420;2022-12-07T14:21:18;4.33;;;0.73;;
75417;SDS011;63997;52.112;5.420;2022-12-07T14:26:35;3.13;;;0.70;;
75417;SDS011;63997;52.112;5.420;2022-12-07T14:29:22;8.50;;;2.30;;
75417;SDS011;63997;52.112;5.420;2022-12-07T14:31:51;2.40;;;0.50;;
75417;SDS011;63997;52.112;5.420;2022-12-07T14:34:22;1.17;;;0.40;;
75417;SDS011;63997;52.112;5.420;2022-12-07T14:36:49;1.65;;;0.45;;
75417;SDS011;63997;52.112;5.420;2022-12-07T14:39:15;2.85;;;0.70;;
75417;SDS011;63997;52.112;5.420;2022-12-07T14:41:42;3.60;;;0.73;;
75417;SDS011;63997;52.112;5.420;2022-12-07T14:44:21;4.10;;;0.80;;
75417;SDS011;63997;52.112;5.420;2022-12-07T14:46:54;2.77;;;0.50;;
75417;SDS011;63997;52.112;5.420;2022-12-07T14:49:41;2.35;;;0.90;;
75417;SDS011;63997;52.112;5.420;2022-12-07T14:52:15;4.05;;;0.60;;
75417;SDS011;63997;52.112;5.420;2022-12-07T14:55:07;5.53;;;0.73;;
75417;SDS011;63997;52.112;5.420;2022-12-07T14:57:56;2.38;;;0.80;;
75417;SDS011;63997;52.112;5.420;2022-12-07T15:00:23;3.53;;;0.70;;
75417;SDS011;63997;52.112;5.420;2022-12-07T15:02:51;4.10;;;0.98;;
75417;SDS011;63997;52.112;5.420;2022-12-07T15:05:19;5.63;;;0.63;;
75417;SDS011;63997;52.112;5.420;2022-12-07T15:07:48;3.50;;;1.02;;
75417;SDS011;63997;52.112;5.420;2022-12-07T15:10:23;2.50;;;0.50;;
75417;SDS011;63997;52.112;5.420;2022-12-07T15:12:56;3.73;;;0.30;;
75417;SDS011;63997;52.112;5.420;2022-12-07T15:15:49;4.28;;;0.47;;
75417;SDS011;63997;52.112;5.420;2022-12-07T15:18:17;4.78;;;0.82;;
75417;SDS011;63997;52.112;5.420;2022-12-07T15:20:45;5.55;;;1.15;;
75417;SDS011;63997;52.112;5.420;2022-12-07T15:23:12;1.42;;;0.40;;
75417;SDS011;63997;52.112;5.420;2022-12-07T15:25:45;3.40;;;0.57;;
75417;SDS011;63997;52.112;5.420;2022-12-07T15:28:13;3.67;;;0.60;;
75417;SDS011;63997;52.112;5.420;2022-12-07T15:30:41;2.40;;;0.45;;
75417;SDS011;63997;52.112;5.420;2022-12-07T15:33:09;2.20;;;0.63;;
75417;SDS011;63997;52.112;5.420;2022-12-07T15:35:40;4.10;;;0.40;;
75417;SDS011;63997;52.112;5.420;2022-12-07T15:38:07;2.73;;;0.60;;
75417;SDS011;63997;52.112;5.420;2022-12-07T15:40:34;4.32;;;0.63;;
75417;SDS011;63997;52.112;5.420;2022-12-07T15:43:01;1.05;;;0.63;;
75417;SDS011;63997;52.112;5.420;2022-12-07T15:45:28;5.70;;;0.73;;
75417;SDS011;63997;52.112;5.420;2022-12-07T15:47:54;4.57;;;2.70;;
75417;SDS011;63997;52.112;5.420;2022-12-07T15:50:41;2.00;;;0.50;;
75417;SDS011;63997;52.112;5.420;2022-12-07T15:53:08;3.45;;;0.45;;
75417;SDS011;63997;52.112;5.420;2022-12-07T15:55:34;1.20;;;0.60;;
75417;SDS011;63997;52.112;5.420;2022-12-07T15:58:00;5.30;;;0.50;;
75417;SDS011;63997;52.112;5.420;2022-12-07T16:00:27;1.52;;;0.50;;
75417;SDS011;63997;52.112;5.420;2022-12-07T16:02:54;2.10;;;0.30;;
75417;SDS011;63997;52.112;5.420;2022-12-07T16:05:21;2.38;;;0.60;;
75417;SDS011;63997;52.112;5.420;2022-12-07T16:07:49;1.77;;;0.50;;
75417;SDS011;63997;52.112;5.420;2022-12-07T16:10:15;3.65;;;0.60;;
75417;SDS011;63997;52.112;5.420;2022-12-07T16:12:42;2.70;;;0.60;;
75417;SDS011;63997;52.112;5.420;2022-12-07T16:15:08;2.93;;;0.60;;
75417;SDS011;63997;52.112;5.420;2022-12-07T16:17:35;2.30;;;1.38;;
75417;SDS011;63997;52.112;5.420;2022-12-07T16:20:02;1.92;;;0.90;;
75417;SDS011;63997;52.112;5.420;2022-12-07T16:22:31;2.03;;;0.68;;
75417;SDS011;63997;52.112;5.420;2022-12-07T16:24:57;2.67;;;0.60;;
75417;SDS011;63997;52.112;5.420;2022-12-07T16:27:24;1.00;;;0.50;;
75417;SDS011;63997;52.112;5.420;2022-12-07T16:29:50;1.85;;;0.60;;
75417;SDS011;63997;52.112;5.420;2022-12-07T16:32:16;1.40;;;0.40;;
75417;SDS011;63997;52.112;5.420;2022-12-07T16:34:43;0.88;;;0.63;;
75417;SDS011;63997;52.112;5.420;2022-12-07T16:37:09;1.48;;;0.28;;
75417;SDS011;63997;52.112;5.420;2022-12-07T16:39:36;2.10;;;0.30;;
75417;SDS011;63997;52.112;5.420;2022-12-07T16:42:02;0.52;;;0.32;;
75417;SDS011;63997;52.112;5.420;2022-12-07T16:44:29;3.03;;;0.55;;
75417;SDS011;63997;52.112;5.420;2022-12-07T16:46:56;2.15;;;0.30;;
75417;SDS011;63997;52.112;5.420;2022-12-07T16:49:25;2.15;;;0.40;;
75417;SDS011;63997;52.112;5.420;2022-12-07T16:51:51;1.03;;;0.30;;
75417;SDS011;63997;52.112;5.420;2022-12-07T16:54:38;1.98;;;0.30;;
75417;SDS011;63997;52.112;5.420;2022-12-07T16:57:04;2.63;;;0.65;;
75417;SDS011;63997;52.112;5.420;2022-12-07T16:59:31;3.55;;;0.50;;
75417;SDS011;63997;52.112;5.420;2022-12-07T17:01:59;0.80;;;0.43;;
75417;SDS011;63997;52.112;5.420;2022-12-07T17:04:25;4.93;;;0.70;;
75417;SDS011;63997;52.112;5.420;2022-12-07T17:06:52;4.80;;;0.80;;
75417;SDS011;63997;52.112;5.420;2022-12-07T17:09:19;0.90;;;0.40;;
75417;SDS011;63997;52.112;5.420;2022-12-07T17:11:47;5.28;;;0.60;;
75417;SDS011;63997;52.112;5.420;2022-12-07T17:14:14;1.52;;;0.30;;
75417;SDS011;63997;52.112;5.420;2022-12-07T17:17:00;3.33;;;0.77;;
75417;SDS011;63997;52.112;5.420;2022-12-07T17:19:27;1.52;;;0.63;;
75417;SDS011;63997;52.112;5.420;2022-12-07T17:21:54;1.52;;;0.73;;
75417;SDS011;63997;52.112;5.420;2022-12-07T17:24:21;2.42;;;0.75;;